Flight Track Log - Related Links

Times and Time Zones

All times are in EDT time to prevent confusion due to time zone crossing. See the AWE647 flight status page for this flight to view local times or setup timezone preferences in your user account.


Time Position Orientation Groundspeed Altitude Reporting Facility
EDT Latitude Longitude Course Direction KTS MPH feet Rate Location/Type
Sun 07:49:14 AM 42.1964 -83.3603 209° Southwest 154 177 1,900  Level FAA TRACON SMA TRACON (SMA)
Sun 07:49:33 AM 42.1847 -83.3692 209° Southwest 170 196 2,400 1,500 Climbing FAA TRACON SMA TRACON (SMA)
Sun 07:49:54 AM 42.1675 -83.3819 209° Southwest 199 229 2,900 2,049 Climbing FAA TRACON SMA TRACON (SMA)
Sun 07:50:14 AM 42.1528 -83.3928 209° Southwest 207 238 3,800 3,385 Climbing FAA TRACON SMA TRACON (SMA)
Sun 07:50:33 AM 42.1342 -83.4047 205° Southwest 205 236 5,100 3,150 Climbing FAA TRACON SMA TRACON (SMA)
Sun 07:50:54 AM 42.1164 -83.4144 202° Southwest 227 261 5,900 2,195 Climbing FAA TRACON SMA TRACON (SMA)
Sun 07:51:00 AM 42.1455 -83.7790 217° Southwest  Level Estimated
Sun 07:51:14 AM 42.0972 -83.4275 207° Southwest 244 281 6,600  Level FAA TRACON SMA TRACON (SMA)
Sun 07:51:34 AM 42.0750 -83.4442 209° Southwest 250 288 7,800 3,150 Climbing FAA TRACON SMA TRACON (SMA)
Sun 07:51:54 AM 42.0586 -83.4589 214° Southwest 251 289 8,700 3,077 Climbing FAA TRACON SMA TRACON (SMA)
Sun 07:52:00 AM 42.1228 -83.9206 211° Southwest  Level Estimated
Sun 07:52:13 AM 42.0378 -83.4778 214° Southwest 258 297 9,800  Level FAA TRACON SMA TRACON (SMA)
Sun 07:52:34 AM 42.0153 -83.4972 213° Southwest 255 293 11,000 2,488 Climbing FAA TRACON SMA TRACON (SMA)
Sun 07:52:54 AM 41.9967 -83.5142 214° Southwest 277 319 11,500 1,231 Climbing FAA TRACON SMA TRACON (SMA)
Sun 07:53:00 AM 42.0999 -84.0622 211° Southwest  Level Estimated
Sun 07:53:13 AM 41.9778 -83.5311 214° Southwest 299 344 11,800  Level FAA TRACON SMA TRACON (SMA)
Sun 07:53:34 AM 41.9489 -83.5569 214° Southwest 324 373 12,200 1,800 Climbing FAA TRACON SMA TRACON (SMA)
Sun 07:53:53 AM 41.9222 -83.5806 213° Southwest 329 379 13,000 2,250 Climbing FAA TRACON SMA TRACON (SMA)
Sun 07:54:00 AM 42.0769 -84.2037 209° Southwest  Level Estimated
Sun 07:54:14 AM 41.8978 -83.6022 213° Southwest 336 387 13,700  Level FAA TRACON SMA TRACON (SMA)
Sun 07:54:34 AM 41.8731 -83.6239 213° Southwest 343 395 14,400 3,538 Climbing FAA TRACON SMA TRACON (SMA)
Sun 07:54:53 AM 41.8419 -83.6517 214° Southwest 346 398 16,000 3,900 Climbing FAA TRACON SMA TRACON (SMA)
Sun 07:55:14 AM 41.8178 -83.6725 213° Southwest 339 390 17,000 2,100 Climbing FAA TRACON SMA TRACON (SMA)
Sun 07:55:33 AM 41.7939 -83.6936 213° Southwest 337 388 17,400 1,050 Climbing FAA TRACON SMA TRACON (SMA)
Sun 07:55:54 AM 41.7622 -83.7214 213° Southwest 354 407 17,700 1,463 Climbing FAA TRACON SMA TRACON (SMA)
Sun 07:56:14 AM 41.7358 -83.7458 215° Southwest 375 432 18,400 2,462 Climbing FAA TRACON SMA TRACON (SMA)
Sun 07:56:33 AM 41.7069 -83.7706 213° Southwest 368 423 19,300 2,550 Climbing FAA TRACON SMA TRACON (SMA)
Sun 07:56:54 AM 41.6806 -83.7942 214° Southwest 368 423 20,100 2,400 Climbing FAA TRACON SMA TRACON (SMA)
Sun 07:57:13 AM 41.6464 -83.8203 210° Southwest 369 425 20,900 2,100 Climbing FAA TRACON SMA TRACON (SMA)
Sun 07:57:34 AM 41.6186 -83.8414 210° Southwest 374 430 21,500 1,463 Climbing FAA TRACON SMA TRACON (SMA)
Sun 07:57:54 AM 41.5911 -83.8653 213° Southwest 378 435 21,900 1,692 Climbing FAA TRACON SMA TRACON (SMA)
Sun 07:58:13 AM 41.5556 -83.8917 209° Southwest 381 438 22,600 1,950 Climbing FAA TRACON SMA TRACON (SMA)
Sun 07:58:34 AM 41.5267 -83.9136 210° Southwest 384 442 23,200 1,463 Climbing FAA TRACON SMA TRACON (SMA)
Sun 07:58:54 AM 41.5003 -83.9422 219° Southwest 397 457 23,600 1,231 Climbing FAA TRACON SMA TRACON (SMA)
Sun 07:59:13 AM 41.4764 -83.9544 201° Southwest 399 459 24,000 600 Climbing FAA TRACON SMA TRACON (SMA)
Sun 07:59:34 AM 41.4764 -83.9544 252° West 399 459 24,000 1,629 Level FAA TRACON SMA TRACON (SMA)
Sun 08:00:23 AM 41.3508 -84.0492 210° Southwest 395 455 25,900 1,759 Climbing Cleveland Center
Sun 08:01:30 AM 41.2547 -84.1425 216° Southwest 403 464 27,400 1,219 Climbing Chicago Center
Sun 08:02:31 AM 41.2139 -84.2767 248° West 394 453 28,500 1,082 Climbing Chicago Center
Sun 08:03:32 AM 41.1767 -84.4181 251° West 401 461 29,600 1,230 Climbing Chicago Center
Sun 08:04:33 AM 41.1408 -84.5603 252° West 407 468 31,000 1,180 Climbing Chicago Center
Sun 08:05:34 AM 41.1050 -84.7022 252° West 404 465 32,000 492 Climbing Chicago Center
Sun 08:06:35 AM 41.0683 -84.8419 251° West 401 461 32,000  Level Chicago Center
Sun 08:07:36 AM 41.0322 -84.9819 251° West 400 460 32,000  Level Chicago Center
Sun 08:08:37 AM 40.9950 -85.1225 251° West 402 463 32,000  Level Chicago Center
Sun 08:09:38 AM 40.9692 -85.2636 256° West 396 456 32,000  Level Chicago Center
Sun 08:10:39 AM 40.9517 -85.4092 261° West 396 456 32,000  Level Chicago Center
Sun 08:11:40 AM 40.9336 -85.5531 261° West 397 457 32,000  Level Chicago Center
Sun 08:12:42 AM 40.9161 -85.6969 261° West 395 455 32,000  Level Chicago Center
Sun 08:13:43 AM 40.8950 -85.8681 261° West 394 453 32,000  Level Chicago Center
Sun 08:14:44 AM 40.8764 -86.0122 260° West 396 456 32,000  Level Chicago Center
Sun 08:15:45 AM 40.8578 -86.1542 260° West 398 458 32,000  Level Chicago Center
Sun 08:16:46 AM 40.8386 -86.3022 260° West 401 461 32,000  Level Chicago Center
Sun 08:17:47 AM 40.8200 -86.4472 260° West 401 461 32,000 639 Level Chicago Center
Sun 08:18:48 AM 40.8003 -86.5928 260° West 404 465 33,300 984 Climbing Chicago Center
Sun 08:19:49 AM 40.7797 -86.7506 260° West 400 460 34,000 1,279 Climbing Chicago Center
Sun 08:20:50 AM 40.7614 -86.8900 260° West 389 448 35,900 976 Climbing Chicago Center
Sun 08:21:52 AM 40.7431 -87.0261 260° West 379 436 36,000 49 Climbing Chicago Center
Sun 08:22:53 AM 40.7231 -87.1661 259° West 388 447 36,000  Level Chicago Center
Sun 08:23:54 AM 40.7039 -87.3050 260° West 387 445 36,000  Level Chicago Center
Sun 08:24:55 AM 40.6856 -87.4433 260° West 385 443 36,000 -885 Level Chicago Center
Sun 08:25:56 AM 40.6656 -87.5819 259° West 385 443 34,200 -1,951 Descending Chicago Center
Sun 08:26:58 AM 40.6453 -87.7264 260° West 399 459 32,000 -1,073 Descending Chicago Center
Sun 08:27:59 AM 40.6244 -87.8742 260° West 409 471 32,000  Level Chicago Center
Sun 08:29:00 AM 40.5994 -88.0486 259° West 405 466 32,000  Level Chicago Center
Sun 08:30:01 AM 40.5772 -88.1942 259° West 405 466 32,000  Level Chicago Center
Sun 08:31:02 AM 40.5528 -88.3403 258° West 408 470 32,000  Level Chicago Center
Sun 08:32:03 AM 40.5292 -88.4869 258° West 409 471 32,000  Level Chicago Center
Sun 08:33:05 AM 40.5039 -88.6303 257° West 406 467 32,000  Level Chicago Center
Sun 08:34:06 AM 40.4797 -88.7761 258° West 407 468 32,000  Level Chicago Center
Sun 08:35:07 AM 40.4553 -88.9264 258° West 408 470 32,000  Level Chicago Center
Sun 08:36:08 AM 40.4297 -89.0714 257° West 407 468 32,000  Level Chicago Center
Sun 08:37:10 AM 40.4044 -89.2175 257° West 408 470 32,000  Level Chicago Center
Sun 08:38:11 AM 40.3778 -89.3636 257° West 410 472 32,000  Level Chicago Center
Sun 08:39:12 AM 40.3531 -89.5100 258° West 409 471 32,000  Level Chicago Center
Sun 08:40:13 AM 40.3256 -89.6586 256° West 414 476 32,000  Level Chicago Center
Sun 08:41:14 AM 40.2994 -89.8072 257° West 415 478 32,000  Level Chicago Center
Sun 08:42:16 AM 40.2722 -89.9536 256° West 412 474 32,000  Level Chicago Center
Sun 08:43:17 AM 40.2461 -90.1033 257° West 419 482 32,000  Level Chicago Center
Sun 08:44:18 AM 40.2200 -90.2486 257° West 412 474 32,000 -49 Level Chicago Center
Sun 08:45:19 AM 40.1928 -90.3939 256° West 408 470 31,900  Descending Chicago Center
Sun 08:46:20 AM 40.1658 -90.5397 256° West 413 475 32,000 49 Climbing Chicago Center
Sun 08:47:22 AM 40.1339 -90.7089 256° West 420 483 32,000  Level Chicago Center
Sun 08:47:48 AM 40.1206 -90.7767 256° West 418 481 32,000  Level Kansas City Center
Sun 08:48:50 AM 40.0928 -90.9239 256° West 418 481 32,000  Level Kansas City Center
Sun 08:49:52 AM 40.0675 -91.0586 256° West 415 478 32,000  Level Kansas City Center
Sun 08:50:53 AM 40.0394 -91.2033 256° West 414 476 32,000  Level Kansas City Center
Sun 08:51:54 AM 40.0111 -91.3492 256° West 416 479 32,000  Level Kansas City Center
Sun 08:52:54 AM 39.9769 -91.5239 256° West 417 480 32,000  Level Kansas City Center
Sun 08:53:56 AM 39.9489 -91.6692 256° West 416 479 32,000  Level Kansas City Center
Sun 08:54:55 AM 39.9197 -91.8147 255° West 416 479 32,000  Level Kansas City Center
Sun 08:55:58 AM 39.8897 -91.9625 255° West 420 483 32,000  Level Kansas City Center
Sun 08:56:59 AM 39.8606 -92.1078 255° West 418 481 32,000  Level Kansas City Center
Sun 08:57:59 AM 39.8314 -92.2539 255° West 418 481 32,000  Level Kansas City Center
Sun 08:59:00 AM 39.8028 -92.3992 256° West 417 480 32,000  Level Kansas City Center
Sun 09:00:01 AM 39.7719 -92.5428 254° West 414 476 32,000  Level Kansas City Center
Sun 09:01:02 AM 39.7428 -92.6856 255° West 411 473 32,000  Level Kansas City Center
Sun 09:02:02 AM 39.7125 -92.8314 255° West 415 478 32,000  Level Kansas City Center
Sun 09:03:04 AM 39.6822 -92.9772 255° West 418 481 32,000  Level Kansas City Center
Sun 09:04:06 AM 39.6522 -93.1178 255° West 411 473 32,000  Level Kansas City Center
Sun 09:05:06 AM 39.6208 -93.2617 254° West 413 475 32,000  Level Kansas City Center
Sun 09:06:07 AM 39.5844 -93.4311 254° West 410 472 32,000  Level Kansas City Center
Sun 09:07:08 AM 39.5536 -93.5711 254° West 407 468 32,000  Level Kansas City Center
Sun 09:08:09 AM 39.5222 -93.7122 254° West 409 471 32,000  Level Kansas City Center
Sun 09:09:10 AM 39.4939 -93.8556 256° West 414 476 32,000  Level Kansas City Center
Sun 09:10:11 AM 39.4636 -93.9928 254° West 414 476 32,000  Level Kansas City Center
Sun 09:11:12 AM 39.4278 -94.1522 254° West 414 476 32,000  Level Kansas City Center
Sun 09:12:14 AM 39.3975 -94.2889 254° West 413 475 32,000  Level Kansas City Center
Sun 09:13:15 AM 39.3678 -94.4236 254° West 408 470 32,000  Level Kansas City Center
Sun 09:14:16 AM 39.3319 -94.5819 254° West 412 474 32,000  Level Kansas City Center
Sun 09:15:17 AM 39.3025 -94.7169 254° West 410 472 32,000  Level Kansas City Center
Sun 09:16:18 AM 39.2639 -94.8753 253° West 415 478 32,000  Level Kansas City Center
Sun 09:17:19 AM 39.2339 -95.0078 254° West 404 465 32,000  Level Kansas City Center
Sun 09:18:20 AM 39.1994 -95.1578 254° West 408 470 32,000  Level Kansas City Center
Sun 09:19:20 AM 39.1667 -95.2975 253° West 408 470 32,000  Level Kansas City Center
Sun 09:20:22 AM 39.1339 -95.4369 253° West 406 467 32,000 -242 Level Kansas City Center
Sun 09:21:24 AM 39.1014 -95.5742 253° West 404 465 31,500 -585 Descending Kansas City Center
Sun 09:22:25 AM 39.0697 -95.7078 253° West 407 468 30,800 -744 Descending Kansas City Center
Sun 09:23:25 AM 39.0325 -95.8625 253° West 405 466 30,000 -397 Descending Kansas City Center
Sun 09:24:26 AM 39.0006 -95.9992 253° West 415 478 30,000  Level Kansas City Center
Sun 09:25:27 AM 38.9681 -96.1347 253° West 413 475 30,000  Level Kansas City Center
Sun 09:26:29 AM 38.9289 -96.2922 252° West 414 476 30,000  Level Kansas City Center
Sun 09:27:30 AM 38.8947 -96.4308 252° West 420 483 30,000  Level Kansas City Center
Sun 09:28:32 AM 38.8583 -96.5850 253° West 423 487 30,000  Level Kansas City Center
Sun 09:29:33 AM 38.8225 -96.7258 252° West 418 481 30,000  Level Kansas City Center
Sun 09:30:32 AM 38.7919 -96.8683 255° West 416 479 30,000  Level Kansas City Center
Sun 09:31:35 AM 38.7572 -97.0072 252° West 410 472 30,000  Level Kansas City Center
Sun 09:32:37 AM 38.7233 -97.1447 253° West 407 468 30,000  Level Kansas City Center
Sun 09:33:38 AM 38.6883 -97.2828 252° West 408 470 30,000  Level Kansas City Center
Sun 09:34:39 AM 38.6531 -97.4222 252° West 412 474 30,000  Level Kansas City Center
Sun 09:35:40 AM 38.6186 -97.5606 252° West 411 473 30,000  Level Kansas City Center
Sun 09:36:39 AM 38.5767 -97.7258 252° West 411 473 30,000  Level Kansas City Center
Sun 09:37:40 AM 38.5422 -97.8631 252° West 407 468 30,000  Level Kansas City Center
Sun 09:38:42 AM 38.5069 -97.9975 252° West 403 464 30,000  Level Kansas City Center
Sun 09:39:42 AM 38.4719 -98.1325 252° West 404 465 30,000  Level Kansas City Center
Sun 09:40:46 AM 38.4375 -98.2697 252° West 408 470 30,000  Level Kansas City Center
Sun 09:41:48 AM 38.4017 -98.4064 252° West 409 471 30,000  Level Kansas City Center
Sun 09:42:47 AM 38.3653 -98.5450 252° West 412 474 30,000  Level Kansas City Center
Sun 09:43:49 AM 38.3294 -98.6822 252° West 412 474 30,000  Level Kansas City Center
Sun 09:44:50 AM 38.2867 -98.8481 252° West 412 474 30,000  Level Kansas City Center
Sun 09:45:51 AM 38.2489 -98.9839 251° West 410 472 30,000  Level Kansas City Center
Sun 09:46:51 AM 38.2136 -99.1206 252° West 408 470 30,000  Level Kansas City Center
Sun 09:47:55 AM 38.1767 -99.2561 251° West 407 468 30,000  Level Kansas City Center
Sun 09:48:55 AM 38.1408 -99.3908 251° West 405 466 30,000  Level Kansas City Center
Sun 09:49:57 AM 38.1008 -99.5400 251° West 406 467 30,000  Level Kansas City Center
Sun 09:50:57 AM 38.0644 -99.6703 251° West 408 470 30,000  Level Kansas City Center
Sun 09:51:59 AM 38.0233 -99.8186 251° West 403 464 30,000  Level Kansas City Center
Sun 09:53:00 AM 37.9883 -99.9458 251° West 400 460 30,000  Level Kansas City Center
Sun 09:54:02 AM 37.9536 -100.0714 251° West 396 456 30,000  Level Kansas City Center
Sun 09:55:04 AM 37.9122 -100.2158 250° West 393 452 30,000  Level Kansas City Center
Sun 09:56:04 AM 37.8772 -100.3417 251° West 395 455 30,000  Level Kansas City Center
Sun 09:57:05 AM 37.8361 -100.4881 250° West 396 456 30,000  Level Kansas City Center
Sun 09:58:06 AM 37.8008 -100.6114 250° West 392 451 30,000  Level Kansas City Center
Sun 09:59:10 AM 37.7603 -100.7503 250° West 390 449 30,000  Level Kansas City Center
Sun 10:00:10 AM 37.7228 -100.8803 250° West 392 451 30,000  Level Kansas City Center
Sun 10:01:11 AM 37.6861 -101.0075 250° West 389 448 30,000  Level Kansas City Center
Sun 10:02:12 AM 37.6486 -101.1378 250° West 392 451 30,000  Level Kansas City Center
Sun 10:03:15 AM 37.6125 -101.2617 250° West 395 455 30,000  Level Kansas City Center
Sun 10:04:16 AM 37.5703 -101.4061 250° West 394 453 30,000  Level Kansas City Center
Sun 10:05:17 AM 37.5356 -101.5292 250° West 392 451 30,000  Level Kansas City Center
Sun 10:06:18 AM 37.4925 -101.6717 249° West 391 450 30,000 49 Level Kansas City Center
Sun 10:07:19 AM 37.4572 -101.7947 250° West 390 449 30,100 908 Climbing Kansas City Center
Sun 10:08:17 AM 37.4208 -101.9161 249° West 388 447 31,800 958 Climbing Albuquerque Center
Sun 10:09:18 AM 37.3789 -102.0558 249° West 384 442 32,000 98 Climbing Albuquerque Center
Sun 10:10:19 AM 37.3425 -102.1794 250° West 383 441 32,000  Level Albuquerque Center
Sun 10:11:20 AM 37.3081 -102.2983 250° West 379 436 32,000  Level Albuquerque Center
Sun 10:12:21 AM 37.2550 -102.4061 238° Southwest 378 435 32,000  Level Albuquerque Center
Sun 10:13:23 AM 37.1903 -102.5261 236° Southwest 372 428 32,000  Level Albuquerque Center
Sun 10:14:24 AM 37.1383 -102.6303 238° Southwest 369 425 32,000  Level Albuquerque Center
Sun 10:15:25 AM 37.1003 -102.7600 250° West 356 410 32,000  Level Albuquerque Center
Sun 10:16:26 AM 37.0667 -102.8717 249° West 356 410 32,000 49 Level Albuquerque Center
Sun 10:17:28 AM 37.0333 -102.9836 250° West 357 411 32,100 1,122 Climbing Albuquerque Center
Sun 10:18:29 AM 36.9936 -103.1111 249° West 352 405 34,300 1,770 Climbing Albuquerque Center
Sun 10:19:30 AM 36.9611 -103.2186 249° West 347 399 35,700 829 Climbing Albuquerque Center
Sun 10:20:32 AM 36.9297 -103.3253 250° West 342 394 36,000 146 Climbing Albuquerque Center
Sun 10:21:33 AM 36.8928 -103.4467 249° West 335 386 36,000  Level Albuquerque Center
Sun 10:22:35 AM 36.8600 -103.5542 249° West 341 392 36,000  Level Albuquerque Center
Sun 10:23:36 AM 36.8219 -103.6772 249° West 340 391 36,000  Level Albuquerque Center
Sun 10:24:37 AM 36.7883 -103.7825 248° West 342 394 36,000  Level Albuquerque Center
Sun 10:25:39 AM 36.7553 -103.8892 249° West 342 394 36,000  Level Albuquerque Center
Sun 10:26:40 AM 36.7169 -104.0144 249° West 344 396 36,000  Level Albuquerque Center
Sun 10:27:42 AM 36.6836 -104.1197 248° West 343 395 36,000  Level Albuquerque Center
Sun 10:28:43 AM 36.6492 -104.2264 248° West 339 390 36,000  Level Albuquerque Center
Sun 10:29:45 AM 36.6133 -104.3408 249° West 347 399 36,000  Level Albuquerque Center
Sun 10:30:46 AM 36.5714 -104.4739 249° West 350 403 36,000  Level Albuquerque Center
Sun 10:31:48 AM 36.5358 -104.5878 249° West 352 405 36,000  Level Albuquerque Center
Sun 10:32:49 AM 36.4981 -104.7042 248° West 358 412 36,000 -244 Level Albuquerque Center
Sun 10:33:51 AM 36.4614 -104.8222 249° West 362 417 35,500 -976 Descending Albuquerque Center
Sun 10:34:52 AM 36.4242 -104.9353 248° West 357 411 34,000 -683 Descending Albuquerque Center
Sun 10:35:54 AM 36.3833 -105.0586 248° West 374 430 34,100  Climbing Albuquerque Center
Sun 10:36:55 AM 36.3461 -105.1753 248° West 369 425 34,000 -49 Descending Albuquerque Center
Sun 10:37:57 AM 36.3114 -105.2803 248° West 337 388 34,000  Level Albuquerque Center
Sun 10:38:58 AM 36.2797 -105.3797 248° West 313 360 34,000  Level Albuquerque Center
Sun 10:40:00 AM 36.2442 -105.4894 248° West 330 380 34,000  Level Albuquerque Center
Sun 10:41:02 AM 36.2036 -105.6114 248° West 346 398 34,000  Level Albuquerque Center
Sun 10:42:03 AM 36.1661 -105.7233 247° West 352 405 34,000 49 Level Albuquerque Center
Sun 10:43:05 AM 36.1283 -105.8383 248° West 358 412 34,100 48 Climbing Albuquerque Center
Sun 10:44:07 AM 36.0894 -105.9544 248° West 364 419 34,100 -49 Level Albuquerque Center
Sun 10:45:08 AM 36.0519 -106.0672 248° West 358 412 34,000 -49 Descending Albuquerque Center
Sun 10:46:10 AM 36.0150 -106.1786 248° West 354 407 34,000  Level Albuquerque Center
Sun 10:47:11 AM 35.9692 -106.3181 248° West 363 418 34,000  Level Albuquerque Center
Sun 10:48:13 AM 35.9289 -106.4342 247° West 367 422 34,000  Level Albuquerque Center
Sun 10:49:15 AM 35.8889 -106.5506 247° West 361 415 34,000  Level Albuquerque Center
Sun 10:50:16 AM 35.8525 -106.6600 248° West 360 414 34,000  Level Albuquerque Center
Sun 10:51:18 AM 35.8089 -106.7867 247° West 359 413 34,000  Level Albuquerque Center
Sun 10:52:20 AM 35.7711 -106.8967 247° West 362 417 34,000  Level Albuquerque Center
Sun 10:53:21 AM 35.7281 -107.0236 247° West 361 415 34,000  Level Albuquerque Center
Sun 10:54:23 AM 35.6903 -107.1325 247° West 360 414 34,000  Level Albuquerque Center
Sun 10:55:24 AM 35.6528 -107.2439 248° West 366 421 34,000  Level Albuquerque Center
Sun 10:56:26 AM 35.6061 -107.3742 246° West 370 426 34,000 48 Level Albuquerque Center
Sun 10:57:28 AM 35.5675 -107.4858 247° West 371 427 34,100  Climbing Albuquerque Center
Sun 10:58:30 AM 35.5214 -107.6136 246° West 368 423 34,000 -49 Descending Albuquerque Center
Sun 10:59:31 AM 35.4833 -107.7233 247° West 366 421 34,000  Level Albuquerque Center
Sun 11:00:33 AM 35.4383 -107.8508 247° West 364 419 34,000  Level Albuquerque Center
Sun 11:01:35 AM 35.3989 -107.9608 246° West 366 421 34,000  Level Albuquerque Center
Sun 11:02:37 AM 35.3525 -108.0925 247° West 372 428 34,000 48 Level Albuquerque Center
Sun 11:03:39 AM 35.3108 -108.2081 246° West 380 437 34,100  Climbing Albuquerque Center
Sun 11:04:40 AM 35.2706 -108.3231 247° West 383 441 34,000 -49 Descending Albuquerque Center
Sun 11:05:42 AM 35.2225 -108.4556 246° West 381 438 34,000  Level Albuquerque Center
Sun 11:06:44 AM 35.1817 -108.5683 246° West 378 435 34,000  Level Albuquerque Center
Sun 11:07:46 AM 35.1344 -108.7003 246° West 378 435 34,000 -242 Level Albuquerque Center
Sun 11:08:48 AM 35.0928 -108.8142 246° West 380 437 33,500 -774 Descending Albuquerque Center
Sun 11:09:50 AM 35.0444 -108.9458 246° West 380 437 32,400 -726 Descending Albuquerque Center
Sun 11:10:52 AM 35.0019 -109.0597 246° West 383 441 32,000 -195 Descending Albuquerque Center
Sun 11:11:53 AM 34.9600 -109.1758 246° West 387 445 32,000  Level Albuquerque Center
Sun 11:12:55 AM 34.9106 -109.3103 246° West 389 448 32,000  Level Albuquerque Center
Sun 11:13:57 AM 34.8686 -109.4256 246° West 388 447 32,000  Level Albuquerque Center
Sun 11:14:59 AM 34.8194 -109.5553 245° Southwest 380 437 32,000  Level Albuquerque Center
Sun 11:16:01 AM 34.7772 -109.6706 246° West 384 442 32,000  Level Albuquerque Center
Sun 11:17:03 AM 34.7269 -109.8047 246° West 388 447 32,000  Level Albuquerque Center
Sun 11:18:05 AM 34.6853 -109.9208 246° West 390 449 32,000  Level Albuquerque Center
Sun 11:19:07 AM 34.6347 -110.0550 245° Southwest 391 450 32,000  Level Albuquerque Center
Sun 11:20:09 AM 34.5936 -110.1756 248° West 397 457 32,000  Level Albuquerque Center
Sun 11:21:11 AM 34.5506 -110.2919 246° West 397 457 32,000 -435 Level Albuquerque Center
Sun 11:22:13 AM 34.4967 -110.4203 243° Southwest 387 445 31,100 -1,065 Descending Albuquerque Center
Sun 11:23:15 AM 34.4561 -110.5436 248° West 378 435 29,800 -1,707 Descending Albuquerque Center
Sun 11:24:16 AM 34.4111 -110.6539 244° Southwest 368 423 27,600 -2,129 Descending Albuquerque Center
Sun 11:25:19 AM 34.3672 -110.7614 244° Southwest 359 413 25,400 -2,032 Descending Albuquerque Center
Sun 11:26:20 AM 34.3083 -110.8581 234° Southwest 359 413 23,400 -2,000 Descending Albuquerque Center
Sun 11:27:22 AM 34.2403 -110.9436 226° Southwest 353 406 21,300 -1,935 Descending Albuquerque Center
Sun 11:28:24 AM 34.1742 -111.0294 227° Southwest 352 405 19,400 -1,839 Descending Albuquerque Center
Sun 11:29:26 AM 34.0978 -111.1275 227° Southwest 339 390 17,500 -1,306 Descending Albuquerque Center
Sun 11:30:28 AM 34.0358 -111.2069 227° Southwest 329 379 16,700 -774 Descending Albuquerque Center
Sun 11:31:30 AM 33.9747 -111.2850 227° Southwest 322 371 15,900 -774 Descending Albuquerque Center
Sun 11:32:32 AM 33.9128 -111.3642 227° Southwest 324 373 15,100 -726 Descending Albuquerque Center
Sun 11:33:34 AM 33.8614 -111.4436 232° Southwest 301 346 14,400 -919 Descending Albuquerque Center
Sun 11:34:36 AM 33.8183 -111.5256 238° Southwest 289 333 13,200 -1,268 Descending Albuquerque Center
Sun 11:35:37 AM 33.7753 -111.6064 237° Southwest 286 329 11,800 -1,366 Descending Albuquerque Center
Sun 11:36:39 AM 33.7336 -111.6842 237° Southwest 277 319 10,400 -1,016 Descending Albuquerque Center
Sun 11:37:41 AM 33.6928 -111.7592 237° Southwest 267 307 9,700 -532 Descending Albuquerque Center
Sun 11:38:43 AM 33.6447 -111.8489 237° Southwest 265 305 9,300 -339 Descending Albuquerque Center
Sun 11:39:45 AM 33.6083 -111.9153 237° Southwest 238 274 9,000 -532 Descending Albuquerque Center
Sun 11:40:47 AM 33.5758 -111.9767 238° Southwest 219 252 8,200 -829 Descending Albuquerque Center
Sun 11:41:48 AM 33.5439 -112.0378 238° Southwest 216 249 7,300 -1,073 Descending Albuquerque Center
Sun 11:42:50 AM 33.5261 -112.1044 252° West 221 254 6,000 -1,258 Descending Albuquerque Center
Sun 11:43:52 AM 33.5122 -112.1744 257° West 229 264 4,700 -1,258 Descending Albuquerque Center

Login

Don't have an account? Register now (free) for customized features, flight alerts, and more!